Time;durP1;ratioP1;P1;durP2;ratioP2;P2;SDS_P1;SDS_P2;PMS_P1;PMS_P2;Temp;Humidity;BMP_temperature;BMP_pressure;BME280_temperature;BME280_humidity;BME280_pressure;Samples;Min_cycle;Max_cycle;Signal;HPM_P1;HPM_P2
2022/06/24 00:01:27;;;;;;;;;;;20.30;99.90;;;;;;5026713;28;20022;-72
2022/06/24 00:03:54;;;;;;;;;;;20.30;99.90;;;;;;5021433;28;20028;-72
2022/06/24 00:06:20;;;;;;;;;;;20.40;99.90;;;;;;5018265;28;20388;-72
2022/06/24 00:08:51;;;;;;;;;;;20.30;99.90;;;;;;5018159;28;20390;-72
2022/06/24 00:11:22;;;;;;;;;;;20.30;99.90;;;;;;5022807;28;19933;-71
2022/06/24 00:13:50;;;;;;;;;;;20.10;99.90;;;;;;5024926;28;20297;-72
2022/06/24 00:16:17;;;;;;;;;;;20.10;99.90;;;;;;5028252;28;20465;-72
2022/06/24 00:18:45;;;;;;;;;;;20.10;99.90;;;;;;5025721;28;19935;-73
2022/06/24 00:21:13;;;;;;;;;;;20.10;99.90;;;;;;5020719;28;20426;-74
2022/06/24 00:23:40;;;;;;;;;;;20.10;99.90;;;;;;5021764;28;19925;-72
2022/06/24 00:26:07;;;;;;;;;;;20.10;99.90;;;;;;5020459;28;19936;-73
2022/06/24 00:28:34;;;;;;;;;;;20.00;99.90;;;;;;5023584;28;19972;-72
2022/06/24 00:31:03;;;;;;;;;;;20.10;99.90;;;;;;5027134;28;20020;-73
2022/06/24 00:33:33;;;;;;;;;;;20.00;99.90;;;;;;5024211;28;20036;-72
2022/06/24 00:36:00;;;;;;;;;;;20.00;99.90;;;;;;5025534;28;20019;-72
2022/06/24 00:38:27;;;;;;;;;;;20.00;99.90;;;;;;5016384;28;19948;-72
2022/06/24 00:40:55;;;;;;;;;;;19.90;99.90;;;;;;5015351;28;20020;-72
2022/06/24 00:43:25;;;;;;;;;;;19.80;99.90;;;;;;5019551;28;20000;-72
2022/06/24 00:45:52;;;;;;;;;;;19.70;99.90;;;;;;5022840;28;20484;-72
2022/06/24 00:48:22;;;;;;;;;;;19.70;99.90;;;;;;5018798;28;19929;-72
2022/06/24 00:50:49;;;;;;;;;;;19.60;99.90;;;;;;5020931;28;20058;-73
2022/06/24 00:53:15;;;;;;;;;;;19.70;99.90;;;;;;5020177;28;19998;-73
2022/06/24 00:55:42;;;;;;;;;;;19.70;99.90;;;;;;5019544;28;19971;-73
2022/06/24 00:58:12;;;;;;;;;;;19.70;99.90;;;;;;5027577;28;19925;-72
2022/06/24 01:00:41;;;;;;;;;;;19.80;99.90;;;;;;5027227;28;19929;-73
2022/06/24 01:03:08;;;;;;;;;;;19.70;99.90;;;;;;5028706;28;20346;-73
2022/06/24 01:05:36;;;;;;;;;;;19.70;99.90;;;;;;5025136;28;20008;-73
2022/06/24 01:08:07;;;;;;;;;;;19.70;99.90;;;;;;5021785;28;20061;-73
2022/06/24 01:10:34;;;;;;;;;;;19.60;99.90;;;;;;5024530;28;20043;-73
2022/06/24 01:13:00;;;;;;;;;;;19.60;99.90;;;;;;5022997;28;20020;-72
2022/06/24 01:15:27;;;;;;;;;;;19.60;99.90;;;;;;5028796;28;20008;-72
2022/06/24 01:17:54;;;;;;;;;;;19.50;99.90;;;;;;5024224;28;20011;-72
2022/06/24 01:20:20;;;;;;;;;;;19.30;99.90;;;;;;5023680;28;19955;-72
2022/06/24 01:22:48;;;;;;;;;;;19.20;99.90;;;;;;5023533;28;20398;-72
2022/06/24 01:25:15;;;;;;;;;;;19.20;99.90;;;;;;5023211;28;20015;-73
2022/06/24 01:27:42;;;;;;;;;;;19.10;99.90;;;;;;5024405;28;19925;-72
2022/06/24 01:30:10;;;;;;;;;;;19.10;99.90;;;;;;5023693;28;20064;-73
2022/06/24 01:32:36;;;;;;;;;;;19.30;99.90;;;;;;5022395;28;20464;-72
2022/06/24 01:35:03;;;;;;;;;;;19.40;99.90;;;;;;5024831;28;20308;-72
2022/06/24 01:37:30;;;;;;;;;;;19.40;99.90;;;;;;5023121;28;20012;-72
2022/06/24 01:39:58;;;;;;;;;;;19.40;99.90;;;;;;5022769;28;20032;-72
2022/06/24 01:42:24;;;;;;;;;;;19.40;99.90;;;;;;5023905;28;19979;-73
2022/06/24 01:44:51;;;;;;;;;;;19.40;99.90;;;;;;5022510;28;20085;-73
2022/06/24 01:47:18;;;;;;;;;;;19.40;99.90;;;;;;5023308;28;19991;-72
2022/06/24 01:49:45;;;;;;;;;;;19.40;99.90;;;;;;5024712;28;20008;-72
2022/06/24 01:52:12;;;;;;;;;;;19.30;99.90;;;;;;5024930;28;19929;-72
2022/06/24 01:54:38;;;;;;;;;;;19.30;99.90;;;;;;5031300;28;20011;-72
2022/06/24 01:57:07;;;;;;;;;;;19.30;99.90;;;;;;5022431;28;20027;-72
2022/06/24 01:59:33;;;;;;;;;;;19.30;99.90;;;;;;5024224;28;19977;-72
2022/06/24 02:02:00;;;;;;;;;;;19.30;99.90;;;;;;5019987;28;19979;-73
2022/06/24 02:04:27;;;;;;;;;;;19.40;99.90;;;;;;5031088;28;19973;-72
2022/06/24 02:06:53;;;;;;;;;;;19.20;99.90;;;;;;5023793;28;19983;-73
2022/06/24 02:09:20;;;;;;;;;;;19.20;99.90;;;;;;5021521;28;19933;-73
2022/06/24 02:14:32;;;;;;;;;;;19.30;99.90;;;;;;5024393;28;20018;-72
2022/06/24 02:16:59;;;;;;;;;;;19.00;99.90;;;;;;5021087;28;19956;-71
2022/06/24 02:19:26;;;;;;;;;;;19.00;99.90;;;;;;5029438;28;19932;-71
2022/06/24 02:21:53;;;;;;;;;;;19.10;99.90;;;;;;5022483;28;20372;-71
2022/06/24 02:24:19;;;;;;;;;;;19.10;99.90;;;;;;5023698;28;19925;-71
2022/06/24 02:26:46;;;;;;;;;;;19.20;99.90;;;;;;5023182;28;19926;-72
2022/06/24 02:29:13;;;;;;;;;;;19.20;99.90;;;;;;5025491;28;20743;-74
2022/06/24 02:31:42;;;;;;;;;;;19.20;99.90;;;;;;5026654;28;20295;-71
2022/06/24 02:34:08;;;;;;;;;;;19.20;99.90;;;;;;5023284;28;20037;-71
2022/06/24 02:36:35;;;;;;;;;;;19.20;99.90;;;;;;5022758;28;19925;-72
2022/06/24 02:39:03;;;;;;;;;;;19.30;99.90;;;;;;5024761;28;20292;-71
2022/06/24 02:41:30;;;;;;;;;;;19.30;99.90;;;;;;5022274;28;22451;-72
2022/06/24 02:43:56;;;;;;;;;;;19.30;99.90;;;;;;5023734;28;20003;-71
2022/06/24 02:46:23;;;;;;;;;;;19.30;99.90;;;;;;5031225;28;20016;-72
2022/06/24 02:48:51;;;;;;;;;;;19.40;99.90;;;;;;5021933;28;20009;-71
2022/06/24 02:51:18;;;;;;;;;;;19.40;99.90;;;;;;5023251;28;19925;-72
2022/06/24 02:53:44;;;;;;;;;;;19.40;99.90;;;;;;5022204;28;20523;-73
2022/06/24 02:56:12;;;;;;;;;;;19.40;99.90;;;;;;5024537;28;19929;-71
2022/06/24 02:58:39;;;;;;;;;;;19.30;99.90;;;;;;5021588;28;20312;-70
2022/06/24 03:01:06;;;;;;;;;;;19.40;99.90;;;;;;5027688;28;20024;-71
2022/06/24 03:03:33;;;;;;;;;;;19.40;99.90;;;;;;5021003;28;19925;-71
2022/06/24 03:06:01;;;;;;;;;;;19.40;99.90;;;;;;5021507;28;19929;-71
2022/06/24 03:08:28;;;;;;;;;;;19.40;99.90;;;;;;5020701;28;20020;-71
2022/06/24 03:10:55;;;;;;;;;;;19.30;99.90;;;;;;5023254;28;19968;-71
2022/06/24 03:13:22;;;;;;;;;;;19.40;99.90;;;;;;5020006;28;19929;-70
2022/06/24 03:15:49;;;;;;;;;;;19.40;99.90;;;;;;5022012;28;19929;-71
2022/06/24 03:18:16;;;;;;;;;;;19.50;99.90;;;;;;5022394;28;19925;-71
2022/06/24 03:20:43;;;;;;;;;;;19.40;99.90;;;;;;5022624;28;19944;-71
2022/06/24 03:23:11;;;;;;;;;;;19.40;99.90;;;;;;5020978;28;19979;-71
2022/06/24 03:25:38;;;;;;;;;;;19.40;99.90;;;;;;5022400;28;20023;-71
2022/06/24 03:28:05;;;;;;;;;;;19.40;99.90;;;;;;5021559;28;20456;-72
2022/06/24 03:30:32;;;;;;;;;;;19.40;99.90;;;;;;5026734;28;20028;-72
2022/06/24 03:33:00;;;;;;;;;;;19.30;99.90;;;;;;5022806;28;19929;-73
2022/06/24 03:35:26;;;;;;;;;;;19.30;99.90;;;;;;5021979;28;19969;-71
2022/06/24 03:37:53;;;;;;;;;;;19.30;99.90;;;;;;5021702;28;20449;-72
2022/06/24 03:40:22;;;;;;;;;;;19.30;99.90;;;;;;5021402;28;19925;-73
2022/06/24 03:42:48;;;;;;;;;;;19.20;99.90;;;;;;5020962;28;19960;-73
2022/06/24 03:45:15;;;;;;;;;;;19.20;99.90;;;;;;5022552;28;19964;-72
2022/06/24 03:47:42;;;;;;;;;;;19.30;99.90;;;;;;5021229;28;20406;-72
2022/06/24 03:50:09;;;;;;;;;;;19.30;99.90;;;;;;5023420;28;19933;-72
2022/06/24 03:52:36;;;;;;;;;;;19.30;99.90;;;;;;5024235;28;19929;-72
2022/06/24 03:55:02;;;;;;;;;;;19.30;99.90;;;;;;5027741;28;20380;-72
2022/06/24 03:57:31;;;;;;;;;;;19.30;99.90;;;;;;5024611;28;19925;-73
2022/06/24 03:59:57;;;;;;;;;;;19.20;99.90;;;;;;5024673;28;19936;-72
2022/06/24 04:02:24;;;;;;;;;;;19.30;99.90;;;;;;5026208;28;19991;-72
2022/06/24 04:04:51;;;;;;;;;;;19.30;99.90;;;;;;5028193;28;20036;-73
2022/06/24 04:07:17;;;;;;;;;;;19.30;99.90;;;;;;5029562;28;19929;-73
2022/06/24 04:09:44;;;;;;;;;;;19.20;99.90;;;;;;5024342;28;19932;-73
2022/06/24 04:12:12;;;;;;;;;;;19.20;99.90;;;;;;5021618;28;20036;-71
2022/06/24 04:17:25;;;;;;;;;;;19.20;99.90;;;;;;5025239;28;19935;-72
2022/06/24 04:19:53;;;;;;;;;;;19.20;99.90;;;;;;5026090;28;20564;-72
2022/06/24 04:22:20;;;;;;;;;;;19.10;99.90;;;;;;5021332;28;19944;-72
2022/06/24 04:24:47;;;;;;;;;;;19.10;99.90;;;;;;5020414;28;20060;-71
2022/06/24 04:27:14;;;;;;;;;;;19.10;99.90;;;;;;5020557;28;19925;-72
2022/06/24 04:29:42;;;;;;;;;;;19.10;99.90;;;;;;5026012;28;19933;-71
2022/06/24 04:32:09;;;;;;;;;;;19.10;99.90;;;;;;5018549;28;20108;-72
2022/06/24 04:34:36;;;;;;;;;;;19.20;99.90;;;;;;5015567;28;19941;-72
2022/06/24 04:37:03;;;;;;;;;;;19.10;99.90;;;;;;5020778;28;19929;-72
2022/06/24 04:39:30;;;;;;;;;;;19.10;99.90;;;;;;5020159;28;19948;-72
2022/06/24 04:41:56;;;;;;;;;;;19.10;99.90;;;;;;5020847;28;20415;-71
2022/06/24 04:44:23;;;;;;;;;;;19.10;99.90;;;;;;5027022;28;20016;-71
2022/06/24 04:46:51;;;;;;;;;;;19.10;99.90;;;;;;5023545;28;20315;-71
2022/06/24 04:49:18;;;;;;;;;;;19.10;99.90;;;;;;5017265;28;20365;-72
2022/06/24 04:51:44;;;;;;;;;;;19.20;99.90;;;;;;5022598;28;20016;-72
2022/06/24 04:54:11;;;;;;;;;;;19.20;99.90;;;;;;5021500;28;20483;-73
2022/06/24 04:56:38;;;;;;;;;;;19.20;99.90;;;;;;5022676;28;20312;-73
2022/06/24 04:59:04;;;;;;;;;;;19.20;99.90;;;;;;5020275;28;19925;-73
2022/06/24 05:01:31;;;;;;;;;;;19.30;99.90;;;;;;5020417;28;20352;-71
2022/06/24 05:04:01;;;;;;;;;;;19.30;99.90;;;;;;5021014;28;19930;-72
2022/06/24 05:06:27;;;;;;;;;;;19.20;99.90;;;;;;5018632;28;19933;-71
2022/06/24 05:08:54;;;;;;;;;;;19.20;99.90;;;;;;5020579;28;20395;-71
2022/06/24 05:11:21;;;;;;;;;;;19.30;99.90;;;;;;5020991;28;19925;-72
2022/06/24 05:13:48;;;;;;;;;;;19.30;99.90;;;;;;5020657;28;19936;-71
2022/06/24 05:16:15;;;;;;;;;;;19.30;99.90;;;;;;5019860;28;19925;-72
2022/06/24 05:18:41;;;;;;;;;;;19.30;99.90;;;;;;5020342;28;19932;-72
2022/06/24 05:21:09;;;;;;;;;;;19.30;99.90;;;;;;5023715;28;20016;-72
2022/06/24 05:23:36;;;;;;;;;;;19.20;99.90;;;;;;5019208;28;20024;-72
2022/06/24 05:26:03;;;;;;;;;;;19.30;99.90;;;;;;5017119;28;20474;-73
2022/06/24 05:28:29;;;;;;;;;;;19.40;99.90;;;;;;5016958;28;20011;-72
2022/06/24 05:30:56;;;;;;;;;;;19.40;99.90;;;;;;5020520;28;20016;-73
2022/06/24 05:33:23;;;;;;;;;;;19.40;99.90;;;;;;5028194;28;19971;-72
2022/06/24 05:35:52;;;;;;;;;;;19.40;99.90;;;;;;5020705;28;19959;-72
2022/06/24 05:38:21;;;;;;;;;;;19.40;99.90;;;;;;5020961;28;20405;-72
2022/06/24 05:40:48;;;;;;;;;;;19.40;99.90;;;;;;5019436;28;19925;-72
2022/06/24 05:43:15;;;;;;;;;;;19.40;99.90;;;;;;5022902;28;19929;-74
2022/06/24 05:45:42;;;;;;;;;;;19.40;99.90;;;;;;5021966;28;19964;-74
2022/06/24 05:48:09;;;;;;;;;;;19.50;99.90;;;;;;5021494;28;20110;-73
2022/06/24 05:50:37;;;;;;;;;;;19.50;99.90;;;;;;5027957;28;20285;-73
2022/06/24 05:55:49;;;;;;;;;;;19.60;99.90;;;;;;5026690;28;20134;-73
2022/06/24 05:58:16;;;;;;;;;;;19.60;99.90;;;;;;5024451;28;20368;-73
2022/06/24 06:00:42;;;;;;;;;;;19.70;99.90;;;;;;5028225;28;21694;-72
2022/06/24 06:03:09;;;;;;;;;;;19.80;99.90;;;;;;5026989;28;19965;-72
2022/06/24 06:05:36;;;;;;;;;;;19.70;99.90;;;;;;5029093;28;20435;-73
2022/06/24 06:08:03;;;;;;;;;;;19.80;99.90;;;;;;5029465;28;20021;-73
2022/06/24 06:10:29;;;;;;;;;;;19.70;99.90;;;;;;5029120;28;20023;-73
2022/06/24 06:12:58;;;;;;;;;;;19.80;99.90;;;;;;5029246;28;20024;-73
2022/06/24 06:15:25;;;;;;;;;;;19.90;99.90;;;;;;5025118;28;19971;-73
2022/06/24 06:17:51;;;;;;;;;;;19.90;99.90;;;;;;5015896;28;19948;-73
2022/06/24 06:20:19;;;;;;;;;;;19.90;99.90;;;;;;5007344;28;20142;-73
2022/06/24 06:22:45;;;;;;;;;;;20.00;99.90;;;;;;5016483;28;19925;-73
2022/06/24 06:25:14;;;;;;;;;;;20.00;99.90;;;;;;5026378;28;19957;-73
2022/06/24 06:27:44;;;;;;;;;;;20.00;99.90;;;;;;5022144;28;19933;-72
2022/06/24 06:30:13;;;;;;;;;;;20.00;99.90;;;;;;5018157;28;20476;-73
2022/06/24 06:32:39;;;;;;;;;;;20.00;99.90;;;;;;5017124;28;20011;-73
2022/06/24 06:35:06;;;;;;;;;;;19.90;99.90;;;;;;5020574;28;19983;-72
2022/06/24 06:37:33;;;;;;;;;;;19.90;99.90;;;;;;5026908;28;20016;-73
2022/06/24 06:40:00;;;;;;;;;;;19.90;99.90;;;;;;5023771;28;19933;-73
2022/06/24 06:42:27;;;;;;;;;;;19.80;99.90;;;;;;5023110;28;20020;-73
2022/06/24 06:44:55;;;;;;;;;;;19.70;99.90;;;;;;5028491;28;20351;-73
2022/06/24 06:47:23;;;;;;;;;;;19.60;99.90;;;;;;5027092;28;19930;-72
2022/06/24 06:49:49;;;;;;;;;;;19.50;99.90;;;;;;5025377;28;20020;-72
2022/06/24 06:52:16;;;;;;;;;;;19.60;99.90;;;;;;5026330;28;20004;-72
2022/06/24 06:54:43;;;;;;;;;;;19.60;99.90;;;;;;5027471;28;20015;-74
2022/06/24 06:57:09;;;;;;;;;;;19.70;99.90;;;;;;5019193;28;20415;-74
2022/06/24 06:59:36;;;;;;;;;;;19.70;99.90;;;;;;5030153;28;19925;-73
2022/06/24 07:02:03;;;;;;;;;;;19.70;99.90;;;;;;5026417;28;19933;-75
2022/06/24 07:04:31;;;;;;;;;;;19.80;99.90;;;;;;5028483;28;19973;-73
2022/06/24 07:06:58;;;;;;;;;;;20.00;99.90;;;;;;5027927;28;19925;-73
2022/06/24 07:09:24;;;;;;;;;;;20.10;99.90;;;;;;5028543;28;19929;-74
2022/06/24 07:11:53;;;;;;;;;;;20.20;99.90;;;;;;5028429;28;19925;-74
2022/06/24 07:14:20;;;;;;;;;;;20.20;99.90;;;;;;5024123;28;19943;-74
2022/06/24 07:16:46;;;;;;;;;;;20.30;99.90;;;;;;5029239;28;19960;-73
2022/06/24 07:19:13;;;;;;;;;;;20.40;99.90;;;;;;5028796;28;20385;-74
2022/06/24 07:21:41;;;;;;;;;;;20.60;99.90;;;;;;5030253;28;20030;-73
2022/06/24 07:24:08;;;;;;;;;;;21.30;99.90;;;;;;5029889;28;19968;-73
2022/06/24 07:26:35;;;;;;;;;;;22.30;99.90;;;;;;5031656;28;19925;-73
2022/06/24 07:29:01;;;;;;;;;;;22.60;99.90;;;;;;5027715;28;20339;-74
2022/06/24 07:31:28;;;;;;;;;;;22.70;99.90;;;;;;5028442;28;20011;-74
2022/06/24 07:33:55;;;;;;;;;;;22.50;99.90;;;;;;5022410;28;19929;-73
2022/06/24 07:36:21;;;;;;;;;;;22.10;99.90;;;;;;5020542;28;20460;-72
2022/06/24 07:38:49;;;;;;;;;;;22.00;99.90;;;;;;5025274;28;19979;-71
2022/06/24 07:41:16;;;;;;;;;;;21.90;99.90;;;;;;5022829;28;20332;-71
2022/06/24 07:43:43;;;;;;;;;;;21.80;99.90;;;;;;5024404;28;19925;-73
2022/06/24 07:46:11;;;;;;;;;;;21.80;99.90;;;;;;5026945;28;19925;-74
2022/06/24 07:48:38;;;;;;;;;;;21.80;99.90;;;;;;5027019;28;20465;-71
2022/06/24 07:51:08;;;;;;;;;;;21.70;99.90;;;;;;5030085;28;19925;-71
2022/06/24 07:53:35;;;;;;;;;;;21.60;99.90;;;;;;5026733;28;20147;-72
2022/06/24 07:59:02;;;;;;;;;;;21.40;99.90;;;;;;4924820;29;19931;-72
2022/06/24 08:01:28;;;;;;;;;;;21.40;99.90;;;;;;4927307;29;19926;-73
2022/06/24 08:03:55;;;;;;;;;;;21.40;99.90;;;;;;4966580;28;19940;-74
2022/06/24 08:06:22;;;;;;;;;;;21.30;99.90;;;;;;5029348;28;19995;-74
2022/06/24 08:08:48;;;;;;;;;;;21.20;99.90;;;;;;5021108;28;19947;-72
2022/06/24 08:11:16;;;;;;;;;;;20.90;99.90;;;;;;5027753;28;19931;-74
2022/06/24 08:13:43;;;;;;;;;;;20.70;99.90;;;;;;5024626;28;20030;-69
2022/06/24 08:16:10;;;;;;;;;;;20.40;99.90;;;;;;5025193;28;20389;-68
2022/06/24 08:18:37;;;;;;;;;;;20.30;99.90;;;;;;5023717;28;19955;-68
2022/06/24 08:21:04;;;;;;;;;;;19.70;99.90;;;;;;5018157;28;19956;-75
2022/06/24 08:23:30;;;;;;;;;;;19.30;99.90;;;;;;5021468;28;20300;-72
2022/06/24 08:25:57;;;;;;;;;;;19.10;99.90;;;;;;5024311;28;20012;-74
2022/06/24 08:28:26;;;;;;;;;;;19.00;99.90;;;;;;5024198;28;19925;-74
2022/06/24 08:30:52;;;;;;;;;;;19.00;99.90;;;;;;5027011;28;19932;-74
2022/06/24 08:33:20;;;;;;;;;;;19.00;99.90;;;;;;5023433;28;19925;-72
2022/06/24 08:35:46;;;;;;;;;;;19.00;99.90;;;;;;5024104;28;20376;-77
2022/06/24 08:38:15;;;;;;;;;;;18.90;99.90;;;;;;5025649;28;20012;-71
2022/06/24 08:40:42;;;;;;;;;;;19.00;99.90;;;;;;5021604;28;20042;-73
2022/06/24 08:43:09;;;;;;;;;;;19.10;99.90;;;;;;5020320;28;19925;-73
2022/06/24 08:45:38;;;;;;;;;;;19.00;99.90;;;;;;5026978;28;20363;-72
2022/06/24 08:48:09;;;;;;;;;;;19.00;99.90;;;;;;5023471;28;20009;-73
2022/06/24 08:50:36;;;;;;;;;;;19.00;99.90;;;;;;5020039;28;20000;-73
2022/06/24 08:53:05;;;;;;;;;;;19.00;99.90;;;;;;5022582;28;19925;-74
2022/06/24 08:55:35;;;;;;;;;;;19.00;99.90;;;;;;5027034;28;19964;-74
2022/06/24 08:58:05;;;;;;;;;;;19.10;99.90;;;;;;5023772;28;20348;-76
2022/06/24 09:00:32;;;;;;;;;;;19.20;99.90;;;;;;5022016;28;20392;-75
2022/06/24 09:03:00;;;;;;;;;;;19.20;99.90;;;;;;5023745;28;20032;-74
2022/06/24 09:05:27;;;;;;;;;;;19.30;99.90;;;;;;5022755;28;20067;-72
2022/06/24 09:07:57;;;;;;;;;;;19.40;99.90;;;;;;5023593;28;20451;-74
2022/06/24 09:10:24;;;;;;;;;;;19.30;99.90;;;;;;5023197;28;20166;-73
2022/06/24 09:12:51;;;;;;;;;;;19.20;99.90;;;;;;5024102;28;19925;-73
2022/06/24 09:15:18;;;;;;;;;;;19.10;99.90;;;;;;5017426;28;19939;-71
2022/06/24 09:17:44;;;;;;;;;;;19.00;99.90;;;;;;5027899;28;20002;-77
2022/06/24 09:20:14;;;;;;;;;;;19.00;99.90;;;;;;5031486;28;20327;-74
2022/06/24 09:22:41;;;;;;;;;;;18.90;99.90;;;;;;5031722;28;19976;-75
2022/06/24 09:25:08;;;;;;;;;;;19.10;99.90;;;;;;5030560;28;19961;-74
2022/06/24 09:27:35;;;;;;;;;;;19.20;99.90;;;;;;5024529;28;19984;-74
2022/06/24 09:30:02;;;;;;;;;;;19.50;99.90;;;;;;5026576;28;19972;-74
2022/06/24 09:32:29;;;;;;;;;;;19.70;99.90;;;;;;5025813;28;19933;-75
2022/06/24 09:35:03;;;;;;;;;;;20.10;99.90;;;;;;5026880;28;19932;-75
2022/06/24 09:37:41;;;;;;;;;;;20.40;99.90;;;;;;5023412;28;20338;-75
2022/06/24 09:40:18;;;;;;;;;;;20.40;99.90;;;;;;5025058;28;20339;-75
2022/06/24 09:42:51;;;;;;;;;;;20.70;99.90;;;;;;5024671;28;19929;-75
2022/06/24 09:45:18;;;;;;;;;;;21.10;99.90;;;;;;5023726;28;19988;-75
2022/06/24 09:47:48;;;;;;;;;;;21.90;99.90;;;;;;5019473;28;19929;-73
2022/06/24 09:50:15;;;;;;;;;;;21.90;99.90;;;;;;5027475;28;19929;-74
2022/06/24 09:52:43;;;;;;;;;;;21.80;99.90;;;;;;5026425;28;20358;-78
2022/06/24 09:55:10;;;;;;;;;;;21.50;99.90;;;;;;5022451;28;19936;-78
2022/06/24 09:57:38;;;;;;;;;;;21.30;99.90;;;;;;5018719;28;19936;-79
2022/06/24 10:02:50;;;;;;;;;;;21.10;99.90;;;;;;5019464;28;20368;-78
2022/06/24 10:05:19;;;;;;;;;;;21.70;99.90;;;;;;5021992;28;19933;-81
2022/06/24 10:07:48;;;;;;;;;;;21.70;99.90;;;;;;5021080;28;20019;-81
2022/06/24 10:10:16;;;;;;;;;;;21.80;99.90;;;;;;5024258;28;20681;-77
2022/06/24 10:12:46;;;;;;;;;;;22.20;99.90;;;;;;5023540;28;20011;-79
2022/06/24 10:15:14;;;;;;;;;;;23.00;99.90;;;;;;5021878;28;19925;-77
2022/06/24 10:17:43;;;;;;;;;;;23.20;99.90;;;;;;5022049;28;19933;-79
2022/06/24 10:20:11;;;;;;;;;;;23.40;99.90;;;;;;5022792;28;19926;-77
2022/06/24 10:22:38;;;;;;;;;;;23.30;99.90;;;;;;5019929;28;20022;-78
2022/06/24 10:25:07;;;;;;;;;;;23.00;99.90;;;;;;5023115;28;19937;-75
2022/06/24 10:28:01;;;;;;;;;;;22.80;99.90;;;;;;5019983;28;19968;-77
2022/06/24 10:30:45;;;;;;;;;;;22.70;99.90;;;;;;5021718;28;20377;-78
2022/06/24 10:33:12;;;;;;;;;;;23.00;99.90;;;;;;5021055;28;20339;-77
2022/06/24 10:35:54;;;;;;;;;;;22.90;99.90;;;;;;5018061;28;19979;-78
2022/06/24 10:38:21;;;;;;;;;;;23.20;99.90;;;;;;5022148;28;19937;-77
2022/06/24 10:40:50;;;;;;;;;;;23.30;99.90;;;;;;5025591;28;20403;-77
2022/06/24 10:43:32;;;;;;;;;;;23.40;99.90;;;;;;5027694;28;19979;-78
2022/06/24 10:46:09;;;;;;;;;;;23.40;99.90;;;;;;5023861;28;19968;-76
2022/06/24 10:48:56;;;;;;;;;;;23.30;99.90;;;;;;5025450;28;19967;-75
2022/06/24 10:51:23;;;;;;;;;;;23.20;99.90;;;;;;5029884;28;19943;-77
2022/06/24 10:54:10;;;;;;;;;;;22.90;99.90;;;;;;5030613;28;19929;-76
2022/06/24 10:56:40;;;;;;;;;;;22.90;99.90;;;;;;5028264;28;19932;-76
2022/06/24 10:59:07;;;;;;;;;;;23.30;99.90;;;;;;5028683;28;20618;-78
2022/06/24 11:01:34;;;;;;;;;;;23.20;99.90;;;;;;5029523;28;19992;-77
2022/06/24 11:04:02;;;;;;;;;;;23.10;99.90;;;;;;5026723;28;19963;-78
2022/06/24 11:06:28;;;;;;;;;;;23.10;99.90;;;;;;5028229;28;20031;-78
2022/06/24 11:08:55;;;;;;;;;;;23.40;99.90;;;;;;5026663;28;20016;-78
2022/06/24 11:11:28;;;;;;;;;;;23.50;99.90;;;;;;5023223;28;20024;-79
2022/06/24 11:13:56;;;;;;;;;;;23.60;99.20;;;;;;5026045;28;20368;-76
2022/06/24 11:16:26;;;;;;;;;;;23.50;99.20;;;;;;5022576;28;20618;-80
2022/06/24 11:18:53;;;;;;;;;;;23.60;99.90;;;;;;5019929;28;20009;-79
2022/06/24 11:21:20;;;;;;;;;;;23.40;99.90;;;;;;5015325;28;20388;-78
2022/06/24 11:23:47;;;;;;;;;;;23.80;99.30;;;;;;5017493;28;19933;-79
2022/06/24 11:26:15;;;;;;;;;;;23.90;98.90;;;;;;5021924;28;20020;-83
2022/06/24 11:28:42;;;;;;;;;;;24.30;99.10;;;;;;5022537;28;20379;-77
2022/06/24 11:31:21;;;;;;;;;;;24.30;98.00;;;;;;5022537;28;19972;-80
2022/06/24 11:33:48;;;;;;;;;;;24.10;98.10;;;;;;5022380;28;19968;-79
2022/06/24 11:36:15;;;;;;;;;;;24.00;95.80;;;;;;5019840;28;19925;-79
2022/06/24 11:38:49;;;;;;;;;;;24.00;96.20;;;;;;5018680;28;19962;-80
2022/06/24 11:41:22;;;;;;;;;;;23.80;95.70;;;;;;5014526;28;20051;-79
2022/06/24 11:43:50;;;;;;;;;;;23.60;97.00;;;;;;5016479;28;19995;-79
2022/06/24 11:46:16;;;;;;;;;;;23.50;97.40;;;;;;5018557;28;19948;-81
2022/06/24 11:48:45;;;;;;;;;;;23.90;97.70;;;;;;5016118;28;20376;-79
2022/06/24 11:51:18;;;;;;;;;;;24.20;94.80;;;;;;5018579;28;20016;-79
2022/06/24 11:53:56;;;;;;;;;;;24.60;94.30;;;;;;5013426;28;20365;-82
2022/06/24 11:56:22;;;;;;;;;;;24.80;92.90;;;;;;5014466;28;19936;-73
2022/06/24 11:58:49;;;;;;;;;;;24.60;93.20;;;;;;5019813;28;20020;-80
2022/06/24 12:01:16;;;;;;;;;;;24.40;92.80;;;;;;5022516;28;20351;-79
2022/06/24 12:03:46;;;;;;;;;;;24.50;92.60;;;;;;5023998;28;20017;-81
2022/06/24 12:06:13;;;;;;;;;;;24.70;91.40;;;;;;5023460;28;19980;-76
2022/06/24 12:08:40;;;;;;;;;;;24.70;91.40;;;;;;5018711;28;19933;-75
2022/06/24 12:11:14;;;;;;;;;;;24.50;91.10;;;;;;5016824;28;19933;-76
2022/06/24 12:13:41;;;;;;;;;;;24.60;91.30;;;;;;5019480;28;19932;-78
2022/06/24 12:16:09;;;;;;;;;;;24.60;90.20;;;;;;5023463;28;20403;-74
2022/06/24 12:18:36;;;;;;;;;;;24.70;89.40;;;;;;5023529;28;19936;-75
2022/06/24 12:21:05;;;;;;;;;;;24.70;89.20;;;;;;5023781;28;19999;-76
2022/06/24 12:23:33;;;;;;;;;;;24.80;89.30;;;;;;5025153;28;20447;-76
2022/06/24 12:26:04;;;;;;;;;;;24.80;88.40;;;;;;5027184;28;20352;-77
2022/06/24 12:28:31;;;;;;;;;;;24.80;89.60;;;;;;5022921;28;19925;-76
2022/06/24 12:31:02;;;;;;;;;;;25.00;90.40;;;;;;5025125;28;19957;-78
2022/06/24 12:33:29;;;;;;;;;;;25.30;88.00;;;;;;5021170;28;19937;-77
2022/06/24 12:36:03;;;;;;;;;;;25.60;83.80;;;;;;5024741;28;20348;-78
2022/06/24 12:38:31;;;;;;;;;;;25.60;82.30;;;;;;5023990;28;19932;-77
2022/06/24 12:41:12;;;;;;;;;;;25.70;82.80;;;;;;5025433;28;19969;-76
2022/06/24 12:43:51;;;;;;;;;;;26.00;79.10;;;;;;5023855;28;19932;-77
2022/06/24 12:46:18;;;;;;;;;;;25.80;77.60;;;;;;5027043;28;19929;-77
2022/06/24 12:51:29;;;;;;;;;;;25.70;78.10;;;;;;5026217;28;20076;-77
2022/06/24 12:53:59;;;;;;;;;;;25.80;75.30;;;;;;5025133;28;20024;-78
2022/06/24 12:56:26;;;;;;;;;;;25.90;74.80;;;;;;5027334;28;19925;-78
2022/06/24 12:58:53;;;;;;;;;;;25.80;75.80;;;;;;5022667;28;19932;-77
2022/06/24 13:01:20;;;;;;;;;;;25.60;74.20;;;;;;5018400;28;20033;-78
2022/06/24 13:03:47;;;;;;;;;;;25.50;75.60;;;;;;5026266;28;19933;-78
2022/06/24 13:06:14;;;;;;;;;;;25.30;77.20;;;;;;5027883;28;20281;-78
2022/06/24 13:08:41;;;;;;;;;;;25.30;77.40;;;;;;5025044;28;20004;-73
2022/06/24 13:11:09;;;;;;;;;;;25.50;76.60;;;;;;5025770;28;19987;-71
2022/06/24 13:13:36;;;;;;;;;;;25.50;75.80;;;;;;5022643;28;19929;-77
2022/06/24 13:16:04;;;;;;;;;;;25.60;76.10;;;;;;5028152;28;19947;-79
2022/06/24 13:18:31;;;;;;;;;;;25.80;73.60;;;;;;5027251;28;19925;-78
2022/06/24 13:20:57;;;;;;;;;;;26.00;73.90;;;;;;5027942;28;20008;-78
2022/06/24 13:23:24;;;;;;;;;;;26.40;71.50;;;;;;5019429;28;20272;-77
2022/06/24 13:25:51;;;;;;;;;;;26.60;69.20;;;;;;5025405;28;19925;-77
2022/06/24 13:28:19;;;;;;;;;;;26.60;69.70;;;;;;5026069;28;19968;-77
2022/06/24 13:30:47;;;;;;;;;;;26.60;68.20;;;;;;5024001;28;19980;-77
2022/06/24 13:33:13;;;;;;;;;;;26.40;67.70;;;;;;5025172;28;19934;-76
2022/06/24 13:35:40;;;;;;;;;;;26.50;68.30;;;;;;5023507;28;19933;-77
2022/06/24 13:38:07;;;;;;;;;;;26.50;67.00;;;;;;5025798;28;20008;-77
2022/06/24 13:40:34;;;;;;;;;;;26.40;67.60;;;;;;5023734;28;19925;-76
2022/06/24 13:43:01;;;;;;;;;;;26.10;70.20;;;;;;5019564;28;19933;-77
2022/06/24 13:45:29;;;;;;;;;;;26.40;70.30;;;;;;5022013;28;20020;-78
2022/06/24 13:47:57;;;;;;;;;;;26.60;67.50;;;;;;5024607;28;19944;-77
2022/06/24 13:50:24;;;;;;;;;;;26.50;66.80;;;;;;5025928;28;19929;-76
2022/06/24 13:52:51;;;;;;;;;;;26.40;68.10;;;;;;5024163;28;20380;-75
2022/06/24 13:55:18;;;;;;;;;;;26.00;68.40;;;;;;5022372;28;20173;-75
2022/06/24 13:57:44;;;;;;;;;;;25.90;69.80;;;;;;5023164;28;20436;-74
2022/06/24 14:00:11;;;;;;;;;;;25.80;68.90;;;;;;5022173;28;20098;-75
2022/06/24 14:02:39;;;;;;;;;;;25.50;70.50;;;;;;5019372;28;19968;-75
2022/06/24 14:05:06;;;;;;;;;;;25.20;72.00;;;;;;5027729;28;20079;-75
2022/06/24 14:07:33;;;;;;;;;;;25.20;73.80;;;;;;5023866;28;19925;-75
2022/06/24 14:10:00;;;;;;;;;;;25.20;75.60;;;;;;5022387;28;19925;-75
2022/06/24 14:12:27;;;;;;;;;;;25.10;78.00;;;;;;5026411;28;19929;-76
2022/06/24 14:14:54;;;;;;;;;;;25.00;76.40;;;;;;5030634;28;20114;-75
2022/06/24 14:17:26;;;;;;;;;;;24.80;76.30;;;;;;5029726;28;20462;-75
2022/06/24 14:19:54;;;;;;;;;;;24.60;78.10;;;;;;5027394;28;19925;-76
2022/06/24 14:22:21;;;;;;;;;;;24.40;81.70;;;;;;5028373;28;19925;-73
2022/06/24 14:24:47;;;;;;;;;;;24.50;87.60;;;;;;5028036;28;20091;-76
2022/06/24 14:27:14;;;;;;;;;;;24.40;85.80;;;;;;5027875;28;20024;-75
2022/06/24 14:29:40;;;;;;;;;;;24.30;89.10;;;;;;5026046;28;19929;-72
2022/06/24 14:32:08;;;;;;;;;;;24.10;92.50;;;;;;5027183;28;19998;-74
2022/06/24 14:34:36;;;;;;;;;;;23.60;99.00;;;;;;5021675;28;20383;-74
2022/06/24 14:40:10;;;;;;;;;;;22.80;99.90;;;;;;5026286;28;20392;-74